Airfield :
LOGIN :

Register | Disclaimer

   EN    FR    IT 

 










Legend :    VFR   Marginal VFR   IFR   Intensive IFR   Very Intensive IFR
Visi :
Ceiling :
>= 8 km
>= 3000ft
5 to 8 km
1000 to 3000 ft
1500m to 5 km
500 to 1000 ft
800 to 1500m
200 to 500 ft
< 800m
< 200 ft
Symbols :   Thunderstorms  Fog  Heavy snow  Heavy precipitations  Wind > 20 kt
SIGMETs :     Misc.  Thunderstorms  Icing  Turbulence  Mountain Waves  Volcanic Ashes







- Airport Elevation : 55 ft
- Download approach charts


EGNO - Warton Preston

CURRENT METAR :
  • 201420Z 23006KT 200V260 9999 VCSH SCT015 BKN028 16/14 Q1014

EXPIRED METARs :
  • 201350Z 22007KT 190V250 9999 FEW005 SCT018 BKN028 16/14 Q1014
  • 201320Z 22005KT 9999 FEW008 BKN021 16/14 Q1014
  • 201250Z VRB03KT 5000 -RA FEW003 BKN030 16/13 Q1014
  • 201220Z 26009KT 8000 SCT015 BKN027 16/14 Q1014
  • 201150Z 24005KT 210V270 9999 FEW015 BKN039 16/14 Q1014

TAF TAF EGNO
Valid from the 20 at 15:00 until the 20 at 18:00 UTC


201353Z 2015/2018 25006KT 9999 SCT040
TEMPO 2015/2018 6000 RA BKN012
PROB40
TEMPO 2015/2018 4000 RADZ BKN008
ATIS : +44 1772 856 060
No reported NOTAMs for that airfield.



MET'MAP, your aeronautical weather chart ! - Copyright ORBIFLY December 2007 - Disclaimer

ORBIFLY MET'MAP TEAM :

Programming & Development : Alexandra Zaïnal
Concept & Development : Baudouin d'Aumeries
Co-Development & Prog : Marc-Olivier Méhu
Technical & hardware support : Manuel Goepfert

Contact : metmap@orbifly.com




SOURCES & CREDITS :

   NOAA